Time,TemperatureF,DewpointF,PressureIn,WindDirection,WindDirectionDegrees,WindSpeedMPH,WindSpeedGustMPH,Humidity,HourlyPrecipIn,Conditions,Clouds,dailyrainin,SoftwareType,DateUTC
2018-11-20 00:00:00,69.6,66.5,30.09,NE,42,0.0,0.0,90,0.00,,,0.00,VWS V15.00,2018-11-20 05:00:00,
2018-11-20 00:04:27,69.6,66.5,30.09,NE,42,0.0,0.0,90,0.00,,,0.00,VWS V15.00,2018-11-20 05:04:27,
2018-11-20 00:09:32,69.5,66.4,30.08,NE,42,0.0,0.0,90,0.00,,,0.00,VWS V15.00,2018-11-20 05:09:32,
2018-11-20 00:14:32,69.6,66.5,30.08,NE,42,0.0,0.0,90,0.00,,,0.00,VWS V15.00,2018-11-20 05:14:32,
2018-11-20 00:19:32,69.5,66.4,30.08,NE,42,0.0,0.0,90,0.00,,,0.00,VWS V15.00,2018-11-20 05:19:32,
2018-11-20 00:24:37,69.6,66.5,30.08,NE,42,0.0,0.0,90,0.00,,,0.00,VWS V15.00,2018-11-20 05:24:37,
2018-11-20 00:29:37,69.5,66.4,30.07,NE,42,0.0,0.0,90,0.00,,FEW049,0.00,VWS V15.00,2018-11-20 05:29:37,
2018-11-20 00:34:36,69.5,66.4,30.08,NE,42,0.0,0.0,90,0.00,,FEW049,0.00,VWS V15.00,2018-11-20 05:34:36,
2018-11-20 00:39:36,69.5,66.4,30.08,NE,42,0.0,0.0,90,0.00,,FEW049,0.00,VWS V15.00,2018-11-20 05:39:36,
2018-11-20 00:44:42,69.5,66.4,30.08,NE,42,0.0,0.0,90,0.00,,FEW049,0.00,VWS V15.00,2018-11-20 05:44:42,
2018-11-20 00:49:42,69.4,66.7,30.08,NE,42,0.0,0.0,91,0.00,,FEW049,0.00,VWS V15.00,2018-11-20 05:49:42,
2018-11-20 00:54:42,69.5,66.4,30.08,NE,42,0.0,0.0,90,0.00,,FEW049,0.00,VWS V15.00,2018-11-20 05:54:42,
2018-11-20 01:00:00,69.6,66.9,30.07,NE,42,0.0,0.0,91,0.00,,FEW049,0.00,VWS V15.00,2018-11-20 06:00:00,
2018-11-20 01:04:47,69.7,67.0,30.08,NE,42,0.0,0.0,91,0.00,,FEW049,0.00,VWS V15.00,2018-11-20 06:04:47,
2018-11-20 01:09:46,69.7,67.0,30.07,NE,42,0.0,0.0,91,0.00,,FEW049,0.00,VWS V15.00,2018-11-20 06:09:46,
2018-11-20 01:14:47,69.7,67.0,30.07,NE,42,0.0,0.0,91,0.00,,FEW049,0.00,VWS V15.00,2018-11-20 06:14:47,
2018-11-20 01:19:52,69.7,67.0,30.08,NE,42,0.0,0.0,91,0.00,,FEW049,0.00,VWS V15.00,2018-11-20 06:19:52,
2018-11-20 01:24:52,69.8,67.1,30.07,NE,42,0.0,0.0,91,0.00,,FEW049,0.00,VWS V15.00,2018-11-20 06:24:52,
2018-11-20 01:29:52,69.9,67.5,30.07,NE,42,0.0,0.0,92,0.00,,BKN060,0.00,VWS V15.00,2018-11-20 06:29:52,
2018-11-20 01:34:57,70.0,67.6,30.07,NE,42,0.0,0.0,92,0.00,,BKN060,0.00,VWS V15.00,2018-11-20 06:34:57,
2018-11-20 01:39:56,69.9,67.5,30.07,NE,42,0.0,0.0,92,0.00,,BKN060,0.00,VWS V15.00,2018-11-20 06:39:56,
2018-11-20 01:44:57,70.0,67.6,30.07,NE,42,0.0,0.0,92,0.00,,BKN060,0.00,VWS V15.00,2018-11-20 06:44:57,
2018-11-20 01:49:57,70.0,67.6,30.06,NE,42,0.0,0.0,92,0.00,,BKN060,0.00,VWS V15.00,2018-11-20 06:49:57,
2018-11-20 01:55:02,70.0,67.6,30.07,NE,42,0.0,0.0,92,0.00,,BKN060,0.00,VWS V15.00,2018-11-20 06:55:02,
2018-11-20 02:00:02,70.1,67.7,30.06,NE,42,0.0,0.0,92,0.00,,BKN060,0.00,VWS V15.00,2018-11-20 07:00:02,
2018-11-20 02:05:02,70.1,67.7,30.06,NE,42,0.0,0.0,92,0.00,,BKN060,0.00,VWS V15.00,2018-11-20 07:05:02,
2018-11-20 02:10:02,70.0,67.6,30.07,NE,42,0.0,0.0,92,0.00,,BKN060,0.00,VWS V15.00,2018-11-20 07:10:02,
2018-11-20 02:15:02,70.0,67.6,30.06,NE,42,0.0,0.0,92,0.00,,BKN060,0.00,VWS V15.00,2018-11-20 07:15:02,
2018-11-20 02:20:11,69.9,67.5,30.06,NE,42,0.0,0.0,92,0.00,,BKN060,0.00,VWS V15.00,2018-11-20 07:20:11,
2018-11-20 02:25:12,69.9,67.5,30.06,NE,42,0.0,0.0,92,0.00,,BKN060,0.00,VWS V15.00,2018-11-20 07:25:12,
2018-11-20 02:30:11,69.9,67.5,30.06,NE,42,0.0,0.0,92,0.00,,OVC080,0.00,VWS V15.00,2018-11-20 07:30:11,
2018-11-20 02:34:12,69.9,67.5,30.06,NE,42,0.0,0.0,92,0.00,,OVC080,0.00,VWS V15.00,2018-11-20 07:34:12,
2018-11-20 02:39:12,69.9,67.8,30.06,NE,42,0.0,0.0,93,0.00,,OVC080,0.00,VWS V15.00,2018-11-20 07:39:12,
2018-11-20 02:44:17,69.9,67.8,30.06,NE,42,0.0,0.0,93,0.00,,OVC080,0.00,VWS V15.00,2018-11-20 07:44:17,
2018-11-20 02:49:17,69.9,67.8,30.05,NE,42,0.0,0.0,93,0.00,,OVC080,0.00,VWS V15.00,2018-11-20 07:49:17,
2018-11-20 02:54:17,69.9,67.8,30.05,NE,42,0.0,0.0,93,0.00,,OVC080,0.00,VWS V15.00,2018-11-20 07:54:17,
2018-11-20 03:00:00,69.9,67.8,30.05,NE,42,0.0,0.0,93,0.00,,OVC080,0.00,VWS V15.00,2018-11-20 08:00:00,
2018-11-20 03:04:22,69.9,67.8,30.05,NE,42,0.0,0.0,93,0.00,,OVC080,0.00,VWS V15.00,2018-11-20 08:04:22,
2018-11-20 03:09:22,69.8,67.7,30.05,NE,42,0.0,0.0,93,0.00,,OVC080,0.00,VWS V15.00,2018-11-20 08:09:22,
2018-11-20 03:14:26,69.8,67.7,30.05,NE,42,0.0,0.0,93,0.00,,OVC080,0.00,VWS V15.00,2018-11-20 08:14:26,
2018-11-20 03:18:26,69.8,67.7,30.05,NE,42,0.0,0.0,93,0.00,,OVC080,0.00,VWS V15.00,2018-11-20 08:18:26,
2018-11-20 03:24:27,69.7,67.6,30.06,NE,42,0.0,0.0,93,0.00,,OVC080,0.00,VWS V15.00,2018-11-20 08:24:27,
2018-11-20 03:29:27,69.7,67.6,30.05,NE,42,0.0,0.0,93,0.00,,SCT080,0.00,VWS V15.00,2018-11-20 08:29:27,
2018-11-20 03:34:32,69.6,67.5,30.06,NE,42,0.0,0.0,93,0.00,,SCT080,0.00,VWS V15.00,2018-11-20 08:34:32,
2018-11-20 03:39:31,69.6,67.5,30.05,NE,42,0.0,0.0,93,0.00,,SCT080,0.00,VWS V15.00,2018-11-20 08:39:31,
2018-11-20 03:44:32,69.5,67.4,30.05,NE,42,0.0,0.0,93,0.00,,SCT080,0.00,VWS V15.00,2018-11-20 08:44:32,
2018-11-20 03:49:32,69.4,67.3,30.05,NE,42,0.0,0.0,93,0.00,,SCT080,0.00,VWS V15.00,2018-11-20 08:49:32,
2018-11-20 03:54:37,69.3,67.2,30.05,NE,42,0.0,0.0,93,0.00,,,0.00,VWS V15.00,2018-11-20 08:54:37,
2018-11-20 04:00:00,69.3,67.2,30.04,NE,42,0.0,0.0,93,0.00,,,0.00,VWS V15.00,2018-11-20 09:00:00,
2018-11-20 04:04:37,69.2,67.1,30.05,NE,42,0.0,0.0,93,0.00,,,0.00,VWS V15.00,2018-11-20 09:04:37,
2018-11-20 04:09:42,69.1,67.0,30.05,NE,42,0.0,0.0,93,0.00,,,0.00,VWS V15.00,2018-11-20 09:09:42,
2018-11-20 04:14:42,69.0,66.6,30.05,NE,42,0.0,0.0,92,0.00,,,0.00,VWS V15.00,2018-11-20 09:14:42,
2018-11-20 04:19:47,68.7,66.6,30.04,NE,42,0.0,0.0,93,0.00,,,0.00,VWS V15.00,2018-11-20 09:19:47,
2018-11-20 04:24:47,68.7,66.6,30.05,NE,42,0.0,0.0,93,0.00,,,0.00,VWS V15.00,2018-11-20 09:24:47,
2018-11-20 04:29:46,68.7,66.6,30.04,NE,42,0.0,0.0,93,0.00,,,0.00,VWS V15.00,2018-11-20 09:29:46,
2018-11-20 04:34:47,68.6,66.5,30.05,NE,42,0.0,0.0,93,0.00,,,0.00,VWS V15.00,2018-11-20 09:34:47,
2018-11-20 04:39:52,68.6,66.5,30.05,NE,42,0.0,0.0,93,0.00,,,0.00,VWS V15.00,2018-11-20 09:39:52,
2018-11-20 04:44:52,68.5,66.4,30.05,NE,42,0.0,0.0,93,0.00,,,0.00,VWS V15.00,2018-11-20 09:44:52,
2018-11-20 04:49:57,68.5,66.4,30.04,NE,42,0.0,0.0,93,0.00,,,0.00,VWS V15.00,2018-11-20 09:49:57,
2018-11-20 04:54:57,68.2,66.1,30.04,NE,42,0.0,0.0,93,0.00,,,0.00,VWS V15.00,2018-11-20 09:54:57,
2018-11-20 05:00:00,68.1,66.0,30.04,NE,42,0.0,0.0,93,0.00,,,0.00,VWS V15.00,2018-11-20 10:00:00,
2018-11-20 05:05:02,68.1,66.0,30.05,NE,42,0.0,0.0,93,0.00,,,0.00,VWS V15.00,2018-11-20 10:05:02,
2018-11-20 05:10:02,68.1,66.0,30.05,NE,42,0.0,0.0,93,0.00,,,0.00,VWS V15.00,2018-11-20 10:10:02,
2018-11-20 05:15:02,68.0,65.9,30.05,NE,42,0.0,0.0,93,0.00,,,0.00,VWS V15.00,2018-11-20 10:15:02,
2018-11-20 05:20:02,68.0,65.9,30.05,NE,42,0.0,0.0,93,0.00,,,0.00,VWS V15.00,2018-11-20 10:20:02,
2018-11-20 05:25:02,68.0,65.9,30.05,NE,42,0.0,0.0,93,0.00,,,0.00,VWS V15.00,2018-11-20 10:25:02,
2018-11-20 05:30:02,68.0,65.9,30.06,NE,42,0.0,0.0,93,0.00,,CLR,0.00,VWS V15.00,2018-11-20 10:30:02,
2018-11-20 05:35:12,68.0,65.9,30.06,NE,42,0.0,0.0,93,0.00,,CLR,0.00,VWS V15.00,2018-11-20 10:35:12,
2018-11-20 05:40:13,68.0,66.2,30.05,NE,42,0.0,0.0,94,0.00,,CLR,0.00,VWS V15.00,2018-11-20 10:40:13,
2018-11-20 05:45:11,68.0,65.9,30.06,NE,42,0.0,0.0,93,0.00,,CLR,0.00,VWS V15.00,2018-11-20 10:45:11,
2018-11-20 05:49:12,68.0,65.9,30.06,NE,42,0.0,0.0,93,0.00,,CLR,0.00,VWS V15.00,2018-11-20 10:49:12,
2018-11-20 05:54:17,68.0,66.2,30.06,NE,42,0.0,0.0,94,0.00,,CLR,0.00,VWS V15.00,2018-11-20 10:54:17,
2018-11-20 06:00:00,68.0,66.2,30.06,NE,42,0.0,0.0,94,0.00,,CLR,0.00,VWS V15.00,2018-11-20 11:00:00,
2018-11-20 06:04:17,68.1,66.3,30.06,NE,42,0.0,0.0,94,0.00,,CLR,0.00,VWS V15.00,2018-11-20 11:04:17,
2018-11-20 06:09:21,68.1,66.3,30.06,NE,42,0.0,0.0,94,0.00,,CLR,0.00,VWS V15.00,2018-11-20 11:09:21,
2018-11-20 06:14:22,68.1,66.3,30.06,NE,42,0.0,0.0,94,0.00,,CLR,0.00,VWS V15.00,2018-11-20 11:14:22,
2018-11-20 06:19:22,68.0,66.2,30.05,NE,42,0.0,0.0,94,0.00,,CLR,0.00,VWS V15.00,2018-11-20 11:19:22,
2018-11-20 06:24:26,68.0,66.2,30.06,NE,42,0.0,0.0,94,0.00,,CLR,0.00,VWS V15.00,2018-11-20 11:24:26,
2018-11-20 06:29:27,68.0,66.2,30.06,NE,42,0.0,0.0,94,0.00,,CLR,0.00,VWS V15.00,2018-11-20 11:29:27,
2018-11-20 06:34:27,68.1,66.3,30.06,NE,42,0.0,0.0,94,0.00,,CLR,0.00,VWS V15.00,2018-11-20 11:34:27,
2018-11-20 06:39:27,68.1,66.3,30.07,NE,42,0.0,0.0,94,0.00,,CLR,0.00,VWS V15.00,2018-11-20 11:39:27,
2018-11-20 06:44:32,68.0,66.2,30.06,NE,42,0.0,0.0,94,0.00,,CLR,0.00,VWS V15.00,2018-11-20 11:44:32,
2018-11-20 06:49:32,68.0,66.2,30.07,NE,42,0.0,0.0,94,0.00,,CLR,0.00,VWS V15.00,2018-11-20 11:49:32,
2018-11-20 06:54:32,68.0,66.2,30.07,NE,42,0.0,0.0,94,0.00,,CLR,0.00,VWS V15.00,2018-11-20 11:54:32,
2018-11-20 07:00:00,68.0,66.2,30.07,NE,42,0.0,0.0,94,0.00,,CLR,0.00,VWS V15.00,2018-11-20 12:00:00,
2018-11-20 07:04:37,68.0,66.2,30.07,NE,42,0.0,0.0,94,0.00,,CLR,0.00,VWS V15.00,2018-11-20 12:04:37,
2018-11-20 07:09:37,68.0,66.2,30.07,NE,42,0.0,0.0,94,0.00,,CLR,0.00,VWS V15.00,2018-11-20 12:09:37,
2018-11-20 07:14:37,68.0,66.2,30.08,NE,42,0.0,0.0,94,0.00,,CLR,0.00,VWS V15.00,2018-11-20 12:14:37,
2018-11-20 07:19:42,68.0,66.2,30.08,NE,42,0.0,0.0,94,0.00,,CLR,0.00,VWS V15.00,2018-11-20 12:19:42,
2018-11-20 07:24:42,68.0,66.2,30.07,NE,42,0.0,0.0,94,0.00,,CLR,0.00,VWS V15.00,2018-11-20 12:24:42,
2018-11-20 07:29:41,68.0,66.2,30.08,NE,42,0.0,0.0,94,0.00,,SCT080,0.00,VWS V15.00,2018-11-20 12:29:41,
2018-11-20 07:34:46,68.2,66.4,30.09,South,187,0.0,0.0,94,0.00,,SCT080,0.00,VWS V15.00,2018-11-20 12:34:46,
2018-11-20 07:39:47,68.3,66.5,30.09,South,187,0.0,0.0,94,0.00,,SCT080,0.00,VWS V15.00,2018-11-20 12:39:47,